^^
Meteo Knjazevac Station Historical Data
Daily Summary for March 14, 2022 Units:  English    Metric   Both
Daily Weekly Monthly Yearly Custom
  High: Low: Average:
Temperature: 45.9 °F 34.9 °F 40.8 °F
Dew Point: 45.7 °F 34.6 °F 40.5 °F
Humidity: 99% 99% 99%
Wind Speed: 7.6mph 0mph 2.6mph
Wind Gust: 8mph - -
Wind- - SSE
Pressure: 30.38 in 30.27 in -
Precipitation: 0.00 in    
Historical Graphs
 
 
Tabular Data for March 14, 2022
Time Temperature Dew Point Pressure Wind Wind Speed Wind Gust Humidity Rainfall Rate (Hourly) solar Conditions
00:04 36.1 °F 35.8 °F 30.38 in WNW 2.5 mph 3 mph 99% 0.00 in 0 W/m2
00:09 36 °F 35.7 °F 30.38 in WNW 3.2 mph 3.1 mph 99% 0.00 in 0 W/m2
00:14 36 °F 35.7 °F 30.37 in WNW 3.4 mph 4 mph 99% 0.00 in 0 W/m2
00:19 36 °F 35.7 °F 30.37 in WNW 3.2 mph 3 mph 99% 0.00 in 0 W/m2
00:24 35.9 °F 35.6 °F 30.37 in West 2.7 mph 3 mph 99% 0.00 in 0 W/m2
00:29 35.7 °F 35.4 °F 30.37 in West 2.2 mph 3 mph 99% 0.00 in 0 W/m2
00:34 35.6 °F 35.3 °F 30.37 in WNW 2.2 mph 2 mph 99% 0.00 in 0 W/m2
00:39 35.6 °F 35.3 °F 30.37 in NW 1.4 mph 2 mph 99% 0.00 in 0 W/m2
00:44 35.6 °F 35.3 °F 30.37 in NW 0.6 mph 2 mph 99% 0.00 in 0 W/m2
00:49 35.7 °F 35.4 °F 30.38 in North 0.3 mph 1 mph 99% 0.00 in 0 W/m2
00:54 35.8 °F 35.5 °F 30.37 in NNW 1.6 mph 1.6 mph 99% 0.00 in 0 W/m2
00:59 35.8 °F 35.5 °F 30.37 in WNW 2.7 mph 2.5 mph 99% 0.00 in 0 W/m2
01:04 35.9 °F 35.6 °F 30.37 in West 3.4 mph 3 mph 99% 0.00 in 0 W/m2
01:09 36 °F 35.7 °F 30.37 in WNW 2.1 mph 3 mph 99% 0.00 in 0 W/m2
01:14 36 °F 35.7 °F 30.37 in WNW 2.1 mph 2 mph 99% 0.00 in 0 W/m2
01:19 36 °F 35.7 °F 30.37 in WNW 2.2 mph 2 mph 99% 0.00 in 0 W/m2
01:24 36 °F 35.7 °F 30.37 in WNW 1.1 mph 2 mph 99% 0.00 in 0 W/m2
01:29 36 °F 35.7 °F 30.37 in WNW 2 mph 2 mph 99% 0.00 in 0 W/m2
01:34 35.8 °F 35.5 °F 30.37 in West 1.8 mph 2 mph 99% 0.00 in 0 W/m2
01:39 35.6 °F 35.3 °F 30.37 in West 2.3 mph 2 mph 99% 0.00 in 0 W/m2
01:44 35.5 °F 35.3 °F 30.37 in WNW 2.1 mph 2 mph 99% 0.00 in 0 W/m2
01:49 35.4 °F 35.2 °F 30.37 in NW 1.7 mph 2 mph 99% 0.00 in 0 W/m2
01:54 35.4 °F 35.2 °F 30.37 in NNW 1 mph 2 mph 99% 0.00 in 0 W/m2
01:59 35.4 °F 35.2 °F 30.37 in NNW 1.8 mph 2 mph 99% 0.00 in 0 W/m2
02:04 35.2 °F 35 °F 30.37 in West 2.2 mph 2 mph 99% 0.00 in 0 W/m2
02:09 35.2 °F 34.9 °F 30.36 in WNW 1.9 mph 2 mph 99% 0.00 in 0 W/m2
02:14 35.1 °F 34.8 °F 30.36 in WNW 1.4 mph 2 mph 99% 0.00 in 0 W/m2
02:19 34.9 °F 34.6 °F 30.36 in West 1.1 mph 2 mph 99% 0.00 in 0 W/m2
02:24 34.9 °F 34.6 °F 30.36 in WNW 2.2 mph 2 mph 99% 0.00 in 0 W/m2
02:29 35.1 °F 34.8 °F 30.36 in WNW 1.4 mph 2 mph 99% 0.00 in 0 W/m2
02:34 35.1 °F 34.8 °F 30.36 in NW 1.1 mph 2 mph 99% 0.00 in 0 W/m2
02:39 35.2 °F 35 °F 30.36 in NW 1.4 mph 2 mph 99% 0.00 in 0 W/m2
02:44 35.3 °F 35.1 °F 30.36 in WNW 1.4 mph 2 mph 99% 0.00 in 0 W/m2
02:49 35.4 °F 35.2 °F 30.36 in WNW 1.5 mph 2 mph 99% 0.00 in 0 W/m2
02:54 35.6 °F 35.3 °F 30.36 in West 2.2 mph 2 mph 99% 0.00 in 0 W/m2
02:59 35.6 °F 35.3 °F 30.36 in West 2.2 mph 2 mph 99% 0.00 in 0 W/m2
03:04 35.7 °F 35.4 °F 30.36 in West 1.7 mph 2 mph 99% 0.00 in 0 W/m2
03:09 35.7 °F 35.4 °F 30.36 in WNW 2.1 mph 2 mph 99% 0.00 in 0 W/m2
03:14 35.8 °F 35.5 °F 30.36 in WNW 0.7 mph 2 mph 99% 0.00 in 0 W/m2
03:19 35.9 °F 35.6 °F 30.36 in Calm   1 mph 99% 0.00 in 0 W/m2
03:24 36.1 °F 35.8 °F 30.36 in North 0.1 mph   99% 0.00 in 0 W/m2
03:29 36.1 °F 35.9 °F 30.35 in NNW 1.3 mph 2 mph 99% 0.00 in 0 W/m2
03:34 36.3 °F 36.1 °F 30.35 in NW 1.2 mph 2 mph 99% 0.00 in 0 W/m2
03:39 36.3 °F 36.1 °F 30.35 in NW 0.8 mph 1 mph 99% 0.00 in 0 W/m2
03:44 36.3 °F 36.1 °F 30.35 in WNW 2.1 mph 2 mph 99% 0.00 in 0 W/m2
03:49 36.4 °F 36.1 °F 30.35 in NW 1.5 mph 2 mph 99% 0.00 in 0 W/m2
03:54 36.5 °F 36.2 °F 30.35 in WNW 0.4 mph 2 mph 99% 0.00 in 0 W/m2
03:59 36.6 °F 36.3 °F 30.35 in West 1.2 mph 1 mph 99% 0.00 in 0 W/m2
04:04 36.7 °F 36.4 °F 30.35 in West 2.2 mph 2 mph 99% 0.00 in 0 W/m2
04:09 36.7 °F 36.4 °F 30.35 in West 2.7 mph 2.2 mph 99% 0.00 in 0 W/m2
04:14 36.8 °F 36.5 °F 30.35 in West 3.2 mph 3 mph 99% 0.00 in 0 W/m2
04:19 36.9 °F 36.6 °F 30.35 in West 2.4 mph 3 mph 99% 0.00 in 0 W/m2
04:24 36.9 °F 36.6 °F 30.35 in West 2.7 mph 3 mph 99% 0.00 in 0 W/m2
04:29 36.9 °F 36.6 °F 30.35 in WSW 4 mph 3.4 mph 99% 0.00 in 0 W/m2
04:34 36.9 °F 36.6 °F 30.35 in West 3.3 mph 5 mph 99% 0.00 in 0 W/m2
04:39 37 °F 36.8 °F 30.34 in WSW 2.8 mph 3 mph 99% 0.00 in 0 W/m2
04:44 37 °F 36.8 °F 30.34 in West 2.7 mph 3 mph 99% 0.00 in 0 W/m2
04:49 37 °F 36.8 °F 30.34 in WNW 2.2 mph 3 mph 99% 0.00 in 0 W/m2
04:54 37 °F 36.8 °F 30.34 in WNW 2.5 mph 3 mph 99% 0.00 in 0 W/m2
04:59 37.1 °F 36.9 °F 30.34 in WNW 2.4 mph 3 mph 99% 0.00 in 0 W/m2
05:04 37.2 °F 37 °F 30.34 in WNW 1.8 mph 3 mph 99% 0.00 in 0 W/m2
05:09 37.2 °F 37 °F 30.34 in Calm   2 mph 99% 0.00 in 0 W/m2
05:14 37.2 °F 37 °F 30.34 in WSW 0.5 mph   99% 0.00 in 0 W/m2
05:19 37.2 °F 37 °F 30.34 in West 2.3 mph 1.8 mph 99% 0.00 in 0 W/m2
05:24 37.2 °F 37 °F 30.34 in WNW 2.2 mph 3 mph 99% 0.00 in 0 W/m2
05:29 37.1 °F 36.9 °F 30.34 in WNW 2.5 mph 3 mph 99% 0.00 in 0 W/m2
05:34 37 °F 36.8 °F 30.33 in West 2.9 mph 3 mph 99% 0.00 in 0 W/m2
05:39 37 °F 36.7 °F 30.33 in WSW 2.2 mph 3 mph 99% 0.00 in 0 W/m2
05:44 36.9 °F 36.6 °F 30.33 in West 1.9 mph 2 mph 99% 0.00 in 0 W/m2
05:49 36.9 °F 36.6 °F 30.33 in WNW 1.6 mph 2 mph 99% 0.00 in 0 W/m2
05:54 36.9 °F 36.6 °F 30.33 in Calm   2 mph 99% 0.00 in 0 W/m2
05:59 36.7 °F 36.4 °F 30.33 in WNW 1.1 mph 0.9 mph 99% 0.00 in 0 W/m2
06:04 36.7 °F 36.4 °F 30.33 in NNW 2.2 mph 2 mph 99% 0.00 in 0 W/m2
06:09 36.8 °F 36.5 °F 30.33 in North 1.3 mph 2 mph 99% 0.00 in 0 W/m2
06:14 36.8 °F 36.5 °F 30.34 in North 2.7 mph 2.2 mph 99% 0.00 in 0 W/m2
06:19 36.7 °F 36.4 °F 30.34 in NNE 2.7 mph 3 mph 99% 0.00 in 1 W/m2
06:24 36.6 °F 36.3 °F 30.34 in North 2.3 mph 3 mph 99% 0.00 in 2 W/m2
06:29 36.3 °F 36.1 °F 30.34 in North 2.9 mph 3 mph 99% 0.00 in 4 W/m2
06:34 36.3 °F 36.1 °F 30.34 in NNE 2.7 mph 6 mph 99% 0.00 in 7 W/m2
06:39 36.2 °F 36 °F 30.34 in NNE 2.9 mph 4 mph 99% 0.00 in 8 W/m2
06:44 36.1 °F 35.9 °F 30.34 in NNE 1.3 mph 4 mph 99% 0.00 in 10 W/m2
06:49 36.1 °F 35.9 °F 30.34 in NNE 2 mph 2 mph 99% 0.00 in 12 W/m2
06:54 36.2 °F 36 °F 30.34 in NNE 2.4 mph 3 mph 99% 0.00 in 14 W/m2
06:59 36.3 °F 36.1 °F 30.34 in NE 2.8 mph 3 mph 99% 0.00 in 18 W/m2
07:04 36.3 °F 36.1 °F 30.34 in NNE 1.5 mph 3 mph 99% 0.00 in 19 W/m2
07:09 36.4 °F 36.2 °F 30.35 in NNE 2.2 mph 2 mph 99% 0.00 in 21 W/m2
07:14 36.3 °F 36.1 °F 30.35 in NNW 2.2 mph 2 mph 99% 0.00 in 29 W/m2
07:19 36.3 °F 36.1 °F 30.35 in NW 2.1 mph 3 mph 99% 0.00 in 32 W/m2
07:24 36.2 °F 36 °F 30.35 in WNW 2.2 mph 2 mph 99% 0.00 in 39 W/m2
07:29 36.1 °F 35.9 °F 30.35 in NW 2.2 mph 2 mph 99% 0.00 in 40 W/m2
07:34 36.2 °F 36 °F 30.35 in WNW 0.4 mph 2 mph 99% 0.00 in 42 W/m2
07:39 36.3 °F 36.1 °F 30.35 in West 0.7 mph 1 mph 99% 0.00 in 48 W/m2
07:44 36.3 °F 36.1 °F 30.35 in WNW 0.5 mph 1 mph 99% 0.00 in 51 W/m2
07:49 36.4 °F 36.1 °F 30.35 in North 0.6 mph 1 mph 99% 0.00 in 55 W/m2
07:54 36.5 °F 36.2 °F 30.35 in North 1.8 mph 2 mph 99% 0.00 in 65 W/m2
07:59 36.5 °F 36.2 °F 30.35 in NNE 2.1 mph 3 mph 99% 0.00 in 65 W/m2
08:04 36.5 °F 36.2 °F 30.35 in NE 1.1 mph 2 mph 99% 0.00 in 77 W/m2
08:09 36.5 °F 36.2 °F 30.35 in NNE 1.2 mph 2 mph 99% 0.00 in 80 W/m2
08:14 36.5 °F 36.2 °F 30.35 in NW 2 mph 2 mph 99% 0.00 in 84 W/m2
08:19 36.7 °F 36.4 °F 30.35 in West 1.4 mph 2 mph 99% 0.00 in 94 W/m2
08:24 36.9 °F 36.6 °F 30.35 in WNW 2.2 mph 2 mph 99% 0.00 in 100 W/m2
08:29 36.9 °F 36.7 °F 30.35 in WNW 3 mph 3 mph 99% 0.00 in 140 W/m2
08:34 37 °F 36.8 °F 30.35 in WNW 2.3 mph 3 mph 99% 0.00 in 118 W/m2
08:39 37.2 °F 37 °F 30.35 in WNW 2.2 mph 2 mph 99% 0.00 in 117 W/m2
08:44 37.2 °F 37 °F 30.35 in WNW 2 mph 2 mph 99% 0.00 in 114 W/m2
08:49 37.3 °F 37.1 °F 30.35 in WNW 1.9 mph 2 mph 99% 0.00 in 124 W/m2
08:54 37.4 °F 37.1 °F 30.35 in WNW 2.1 mph 2 mph 99% 0.00 in 124 W/m2
08:59 37.5 °F 37.2 °F 30.35 in West 0.8 mph 2 mph 99% 0.00 in 143 W/m2
09:04 37.7 °F 37.4 °F 30.35 in WNW 1.1 mph 2 mph 99% 0.00 in 139 W/m2
09:09 37.9 °F 37.7 °F 30.35 in NW 1.6 mph 2 mph 99% 0.00 in 139 W/m2
09:14 38.1 °F 37.9 °F 30.35 in North 1.3 mph 2 mph 99% 0.00 in 135 W/m2
09:19 38 °F 37.8 °F 30.35 in NNE 3 mph 2.2 mph 99% 0.00 in 142 W/m2
09:24 38.2 °F 37.9 °F 30.35 in NE 3.4 mph 3 mph 99% 0.00 in 155 W/m2
09:29 38.4 °F 38.1 °F 30.35 in NE 2.1 mph 4 mph 99% 0.00 in 161 W/m2
09:34 38.5 °F 38.2 °F 30.35 in NE 2.3 mph 4 mph 99% 0.00 in 160 W/m2
09:39 38.8 °F 38.5 °F 30.35 in NE 0.6 mph 4 mph 99% 0.00 in 155 W/m2
09:44 39 °F 38.8 °F 30.36 in NE 1.5 mph 2 mph 99% 0.00 in 152 W/m2
09:49 39.2 °F 38.9 °F 30.35 in Calm   2 mph 99% 0.00 in 152 W/m2
09:54 39.3 °F 39 °F 30.35 in East 1.8 mph 2 mph 99% 0.00 in 143 W/m2
09:59 39.5 °F 39.2 °F 30.35 in SSW 2.3 mph 3 mph 99% 0.00 in 142 W/m2
10:04 39.7 °F 39.5 °F 30.35 in WSW 2 mph 2 mph 99% 0.00 in 164 W/m2
10:09 39.7 °F 39.5 °F 30.35 in SW 2.1 mph 2 mph 99% 0.00 in 162 W/m2
10:14 39.8 °F 39.6 °F 30.35 in South 2.2 mph 2.2 mph 99% 0.00 in 143 W/m2
10:19 40 °F 39.8 °F 30.35 in WSW 1.6 mph 3 mph 99% 0.00 in 151 W/m2
10:24 40.3 °F 40 °F 30.35 in NW 1.3 mph 2 mph 99% 0.00 in 153 W/m2
10:29 40.5 °F 40.3 °F 30.35 in NNW 1.1 mph 2 mph 99% 0.00 in 149 W/m2
10:34 40.7 °F 40.5 °F 30.35 in NW 2 mph 2 mph 99% 0.00 in 138 W/m2
10:39 41 °F 40.7 °F 30.34 in WNW 0.5 mph 2 mph 99% 0.00 in 135 W/m2
10:44 41 °F 40.7 °F 30.34 in NW 0.3 mph 1 mph 99% 0.00 in 120 W/m2
10:49 41.3 °F 41 °F 30.34 in NNW 1.4 mph 1 mph 99% 0.00 in 124 W/m2
10:54 41.4 °F 41.1 °F 30.34 in North 1.1 mph 2 mph 99% 0.00 in 120 W/m2
10:59 41.5 °F 41.3 °F 30.34 in North 0.8 mph 1 mph 99% 0.00 in 120 W/m2
11:04 41.8 °F 41.5 °F 30.34 in NNW 1.6 mph 2 mph 99% 0.00 in 133 W/m2
11:09 41.9 °F 41.6 °F 30.34 in WNW 1.5 mph 2 mph 99% 0.00 in 149 W/m2
11:14 42.1 °F 41.8 °F 30.34 in WNW 1.5 mph 2 mph 99% 0.00 in 156 W/m2
11:19 42.3 °F 42.1 °F 30.34 in WNW 1.7 mph 2 mph 99% 0.00 in 135 W/m2
11:24 42.5 °F 42.3 °F 30.34 in NNW 1.4 mph 2 mph 99% 0.00 in 142 W/m2
11:29 42.8 °F 42.6 °F 30.34 in North 2.7 mph 2.2 mph 99% 0.00 in 146 W/m2
11:34 42.8 °F 42.5 °F 30.34 in NNE 2.8 mph 4 mph 99% 0.00 in 134 W/m2
11:39 42.7 °F 42.4 °F 30.33 in NE 2.4 mph 4 mph 99% 0.00 in 127 W/m2
11:44 42.8 °F 42.5 °F 30.33 in NE 3.2 mph 3 mph 99% 0.00 in 130 W/m2
11:49 43.1 °F 42.8 °F 30.33 in NNE 3 mph 4 mph 99% 0.00 in 123 W/m2
11:54 43.2 °F 43 °F 30.33 in NNE 3.1 mph 3 mph 99% 0.00 in 128 W/m2
11:59 43.5 °F 43.3 °F 30.33 in NNE 3.2 mph 4 mph 99% 0.00 in 110 W/m2
12:04 43.7 °F 43.4 °F 30.33 in NNE 2.6 mph 4 mph 99% 0.00 in 107 W/m2
12:09 43.8 °F 43.5 °F 30.33 in NNE 3.6 mph 3 mph 99% 0.00 in 105 W/m2
12:14 44 °F 43.7 °F 30.32 in NNE 3.2 mph 5 mph 99% 0.00 in 99 W/m2
12:19 44.1 °F 43.9 °F 30.32 in NNE 3.7 mph 4 mph 99% 0.00 in 98 W/m2
12:24 44.2 °F 44 °F 30.32 in NNE 2.5 mph 5 mph 99% 0.00 in 90 W/m2
12:29 44.4 °F 44.2 °F 30.32 in NNE 2.8 mph 3 mph 99% 0.00 in 91 W/m2
12:34 44.5 °F 44.3 °F 30.32 in North 3.7 mph 3 mph 99% 0.00 in 96 W/m2
12:39 44.6 °F 44.3 °F 30.32 in North 3.8 mph 5 mph 99% 0.00 in 92 W/m2
12:44 44.7 °F 44.4 °F 30.32 in North 3.3 mph 5 mph 99% 0.00 in 87 W/m2
12:49 44.9 °F 44.6 °F 30.32 in North 3.1 mph 4 mph 99% 0.00 in 86 W/m2
12:54 45 °F 44.7 °F 30.32 in North 3 mph 4 mph 99% 0.00 in 76 W/m2
12:59 45 °F 44.7 °F 30.32 in North 2.6 mph 4 mph 99% 0.00 in 72 W/m2
13:04 45 °F 44.7 °F 30.32 in North 2.3 mph 3 mph 99% 0.00 in 65 W/m2
13:09 45 °F 44.7 °F 30.32 in North 3.8 mph 3 mph 99% 0.00 in 64 W/m2
13:14 45.1 °F 44.8 °F 30.31 in North 3.6 mph 5 mph 99% 0.00 in 62 W/m2
13:19 45.1 °F 44.9 °F 30.31 in North 3.4 mph 6 mph 99% 0.00 in 62 W/m2
13:24 45.1 °F 44.9 °F 30.31 in North 3.8 mph 3.1 mph 99% 0.00 in 62 W/m2
13:29 45.2 °F 45 °F 30.31 in North 3.1 mph 5 mph 99% 0.00 in 62 W/m2
13:34 45.4 °F 45.1 °F 30.31 in North 3.8 mph 4 mph 99% 0.00 in 54 W/m2
13:39 45.5 °F 45.2 °F 30.31 in North 3 mph 5 mph 99% 0.00 in 48 W/m2
13:44 45.5 °F 45.2 °F 30.31 in North 3.6 mph 4 mph 99% 0.00 in 48 W/m2
13:49 45.5 °F 45.2 °F 30.31 in North 4.3 mph 5 mph 99% 0.00 in 47 W/m2
13:54 45.6 °F 45.3 °F 30.31 in North 5.4 mph 6 mph 99% 0.00 in 48 W/m2
13:59 45.7 °F 45.4 °F 30.31 in NNE 4.6 mph 6 mph 99% 0.00 in 47 W/m2
14:04 45.7 °F 45.4 °F 30.31 in NNE 6.2 mph 6 mph 99% 0.00 in 57 W/m2
14:09 45.7 °F 45.4 °F 30.30 in NNE 6 mph 8 mph 99% 0.00 in 56 W/m2
14:14 45.8 °F 45.5 °F 30.30 in NNE 7.6 mph 8 mph 99% 0.00 in 51 W/m2
14:19 45.8 °F 45.5 °F 30.30 in NNE 6.1 mph 8 mph 99% 0.00 in 51 W/m2
14:24 45.9 °F 45.6 °F 30.30 in NNE 6 mph 7 mph 99% 0.00 in 48 W/m2
14:29 45.8 °F 45.5 °F 30.30 in NNE 4.7 mph 7 mph 99% 0.00 in 43 W/m2
14:34 45.8 °F 45.5 °F 30.30 in North 5.6 mph 6 mph 99% 0.00 in 34 W/m2
14:39 45.9 °F 45.6 °F 30.30 in NNW 4.6 mph 7 mph 99% 0.00 in 33 W/m2
14:44 45.9 °F 45.6 °F 30.30 in North 4.1 mph 7 mph 99% 0.00 in 35 W/m2
14:49 45.9 °F 45.6 °F 30.30 in NNE 4.1 mph 7 mph 99% 0.00 in 37 W/m2
14:54 45.9 °F 45.6 °F 30.30 in NNE 4.3 mph 6 mph 99% 0.00 in 35 W/m2
14:59 45.9 °F 45.6 °F 30.30 in NNE 4.1 mph 5 mph 99% 0.00 in 31 W/m2
15:04 45.9 °F 45.7 °F 30.30 in NNE 4.9 mph 6 mph 99% 0.00 in 25 W/m2
15:09 45.9 °F 45.7 °F 30.30 in North 3.1 mph 6 mph 99% 0.00 in 19 W/m2
15:14 45.9 °F 45.6 °F 30.30 in North 5.1 mph 4 mph 99% 0.00 in 17 W/m2
15:19 45.9 °F 45.6 °F 30.30 in North 4.5 mph 7 mph 99% 0.00 in 12 W/m2
15:24 45.9 °F 45.6 °F 30.30 in North 5.1 mph 7 mph 99% 0.00 in 14 W/m2
15:29 45.7 °F 45.4 °F 30.30 in North 4.2 mph 6 mph 99% 0.00 in 12 W/m2
15:34 45.7 °F 45.4 °F 30.30 in North 4 mph 5 mph 99% 0.00 in 10 W/m2
15:39 45.7 °F 45.4 °F 30.30 in North 3.6 mph 5 mph 99% 0.00 in 9 W/m2
15:44 45.7 °F 45.4 °F 30.30 in North 3.4 mph 5 mph 99% 0.00 in 6 W/m2
15:49 45.7 °F 45.4 °F 30.30 in NNE 3.7 mph 5 mph 99% 0.00 in 6 W/m2
15:54 45.7 °F 45.4 °F 30.30 in NNE 3.4 mph 5 mph 99% 0.00 in 3 W/m2
15:59 45.6 °F 45.3 °F 30.30 in NNE 3.6 mph 4 mph 99% 0.00 in 2 W/m2
16:04 45.5 °F 45.2 °F 30.30 in NNE 4.9 mph 5 mph 99% 0.00 in 2 W/m2
16:09 45.5 °F 45.2 °F 30.29 in NNE 3.4 mph 7 mph 99% 0.00 in 1 W/m2
16:14 45.5 °F 45.2 °F 30.30 in North 4.3 mph 6 mph 99% 0.00 in 0 W/m2
16:19 45.3 °F 45.1 °F 30.30 in North 3.6 mph 5 mph 99% 0.00 in 0 W/m2
16:24 45.3 °F 45.1 °F 30.30 in NNE 3.9 mph 5 mph 99% 0.00 in 0 W/m2
16:29 45.3 °F 45.1 °F 30.29 in NNE 3.7 mph 5 mph 99% 0.00 in 0 W/m2
16:34 45.2 °F 45 °F 30.29 in NNE 3.6 mph 5 mph 99% 0.00 in 0 W/m2
16:39 45.1 °F 44.9 °F 30.30 in NNE 3.5 mph 5 mph 99% 0.00 in 0 W/m2
16:44 45.1 °F 44.9 °F 30.30 in NNE 3.8 mph 5 mph 99% 0.00 in 0 W/m2
16:49 45 °F 44.8 °F 30.30 in NNE 4.7 mph 6 mph 99% 0.00 in 0 W/m2
16:54 45 °F 44.7 °F 30.30 in NNE 4.1 mph 6 mph 99% 0.00 in 0 W/m2
16:59 45 °F 44.7 °F 30.30 in NNE 3.9 mph 5 mph 99% 0.00 in 0 W/m2
17:04 45 °F 44.7 °F 30.30 in NNE 5 mph 6 mph 99% 0.00 in 0 W/m2
17:09 45 °F 44.7 °F 30.30 in NNE 4.3 mph 6 mph 99% 0.00 in 0 W/m2
17:14 44.8 °F 44.5 °F 30.30 in NNE 4 mph 5 mph 99% 0.00 in 0 W/m2
17:19 44.8 °F 44.5 °F 30.30 in NNE 3.3 mph 5 mph 99% 0.00 in 0 W/m2
17:24 44.8 °F 44.5 °F 30.30 in NNE 3.4 mph 4 mph 99% 0.00 in 0 W/m2
17:29 44.8 °F 44.5 °F 30.30 in NNE 3.2 mph 4 mph 99% 0.00 in 0 W/m2
17:34 44.6 °F 44.3 °F 30.30 in NNE 3.5 mph 4 mph 99% 0.00 in 0 W/m2
17:39 44.6 °F 44.3 °F 30.30 in NNE 4.3 mph 5 mph 99% 0.00 in 0 W/m2
17:44 44.6 °F 44.3 °F 30.30 in NNE 3.6 mph 5 mph 99% 0.00 in 0 W/m2
17:49 44.5 °F 44.3 °F 30.30 in NNE 4.6 mph 6 mph 99% 0.00 in 0 W/m2
17:54 44.5 °F 44.3 °F 30.30 in NNE 4.9 mph 6 mph 99% 0.00 in 0 W/m2
17:59 44.4 °F 44.2 °F 30.30 in NNE 3.3 mph 6 mph 99% 0.00 in 0 W/m2
18:04 44.4 °F 44.2 °F 30.30 in NNE 4 mph 4 mph 99% 0.00 in 0 W/m2
18:09 44.3 °F 44.1 °F 30.30 in NNE 3.3 mph 5 mph 99% 0.00 in 0 W/m2
18:14 44.2 °F 44 °F 30.30 in NNE 3.6 mph 4 mph 99% 0.00 in 0 W/m2
18:19 44.2 °F 44 °F 30.30 in NNE 2 mph 4 mph 99% 0.00 in 0 W/m2
18:24 44.2 °F 44 °F 30.30 in NNE 3.3 mph 2.7 mph 99% 0.00 in 0 W/m2
18:29 44.2 °F 44 °F 30.29 in NNE 4 mph 5 mph 99% 0.00 in 0 W/m2
18:34 44.1 °F 43.8 °F 30.29 in NNE 4.8 mph 5 mph 99% 0.00 in 0 W/m2
18:39 44.1 °F 43.8 °F 30.30 in NNE 3.5 mph 6 mph 99% 0.00 in 0 W/m2
18:44 44.1 °F 43.8 °F 30.29 in NNE 3.3 mph 4 mph 99% 0.00 in 0 W/m2
18:49 44 °F 43.7 °F 30.29 in NNE 4.1 mph 5 mph 99% 0.00 in 0 W/m2
18:54 43.9 °F 43.6 °F 30.29 in North 3.9 mph 5 mph 99% 0.00 in 0 W/m2
18:59 43.9 °F 43.6 °F 30.29 in NNE 4.3 mph 5 mph 99% 0.00 in 0 W/m2
19:04 43.9 °F 43.6 °F 30.29 in NNE 3.2 mph 5 mph 99% 0.00 in 0 W/m2
19:09 43.8 °F 43.5 °F 30.29 in NNE 3.3 mph 4 mph 99% 0.00 in 0 W/m2
19:14 43.7 °F 43.4 °F 30.29 in NNE 3.2 mph 5 mph 99% 0.00 in 0 W/m2
19:19 43.7 °F 43.4 °F 30.29 in NNE 3.1 mph 4 mph 99% 0.00 in 0 W/m2
19:24 43.7 °F 43.4 °F 30.29 in NNE 2.6 mph 4 mph 99% 0.00 in 0 W/m2
19:29 43.7 °F 43.4 °F 30.29 in NNE 3.6 mph 4 mph 99% 0.00 in 0 W/m2
19:34 43.6 °F 43.4 °F 30.29 in NNE 3.4 mph 4 mph 99% 0.00 in 0 W/m2
19:39 43.5 °F 43.3 °F 30.29 in NNE 3 mph 4 mph 99% 0.00 in 0 W/m2
19:44 43.5 °F 43.3 °F 30.29 in North 1.3 mph 3 mph 99% 0.00 in 0 W/m2
19:49 43.5 °F 43.3 °F 30.29 in North 3 mph 3 mph 99% 0.00 in 0 W/m2
19:54 43.5 °F 43.3 °F 30.29 in North 3.1 mph 3 mph 99% 0.00 in 0 W/m2
19:59 43.5 °F 43.3 °F 30.29 in NNE 2.2 mph 4 mph 99% 0.00 in 0 W/m2
20:04 43.4 °F 43.2 °F 30.29 in North 2.1 mph 2 mph 99% 0.00 in 0 W/m2
20:09 43.3 °F 43.1 °F 30.29 in North 2.4 mph 3 mph 99% 0.00 in 0 W/m2
20:14 43.3 °F 43.1 °F 30.29 in NNE 2.9 mph 2.7 mph 99% 0.00 in 0 W/m2
20:19 43.3 °F 43.1 °F 30.29 in NNE 2.9 mph 5 mph 99% 0.00 in 0 W/m2
20:24 43.3 °F 43.1 °F 30.29 in North 2.3 mph 3 mph 99% 0.00 in 0 W/m2
20:29 43.3 °F 43.1 °F 30.29 in North 2.8 mph 3 mph 99% 0.00 in 0 W/m2
20:34 43.3 °F 43.1 °F 30.29 in NNE 2.9 mph 4 mph 99% 0.00 in 0 W/m2
20:39 43.3 °F 43.1 °F 30.29 in NNE 1.9 mph 3 mph 99% 0.00 in 0 W/m2
20:44 43.3 °F 43 °F 30.29 in NNE 2.1 mph 2 mph 99% 0.00 in 0 W/m2
20:49 43.2 °F 43 °F 30.29 in NNE 2.4 mph 2 mph 99% 0.00 in 0 W/m2
20:54 43.2 °F 42.9 °F 30.28 in North 2.2 mph 3 mph 99% 0.00 in 0 W/m2
20:59 43.2 °F 42.9 °F 30.28 in North 2 mph 2 mph 99% 0.00 in 0 W/m2
21:04 43.2 °F 42.9 °F 30.28 in North 1.9 mph 2 mph 99% 0.00 in 0 W/m2
21:09 43.2 °F 43 °F 30.28 in North 2 mph 3 mph 99% 0.00 in 0 W/m2
21:14 43.2 °F 42.9 °F 30.28 in North 2 mph 2 mph 99% 0.00 in 0 W/m2
21:19 43.2 °F 42.9 °F 30.28 in North 2.5 mph 2.9 mph 99% 0.00 in 0 W/m2
21:24 43.2 °F 42.9 °F 30.28 in North 2.8 mph 4 mph 99% 0.00 in 0 W/m2
21:29 43.2 °F 42.9 °F 30.28 in North 2.3 mph 3 mph 99% 0.00 in 0 W/m2
21:34 43.1 °F 42.8 °F 30.28 in North 2.4 mph 3 mph 99% 0.00 in 0 W/m2
21:39 43.1 °F 42.8 °F 30.28 in North 3.2 mph 3 mph 99% 0.00 in 0 W/m2
21:44 43 °F 42.7 °F 30.28 in North 3.2 mph 4 mph 99% 0.00 in 0 W/m2
21:49 43 °F 42.7 °F 30.28 in North 2.8 mph 4 mph 99% 0.00 in 0 W/m2
21:54 43 °F 42.7 °F 30.28 in North 2.3 mph 4 mph 99% 0.00 in 0 W/m2
21:59 43 °F 42.7 °F 30.28 in North 3.2 mph 4 mph 99% 0.00 in 0 W/m2
22:04 43 °F 42.7 °F 30.28 in North 2.6 mph 5 mph 99% 0.00 in 0 W/m2
22:09 43 °F 42.7 °F 30.28 in North 2.9 mph 4 mph 99% 0.00 in 0 W/m2
22:14 43 °F 42.7 °F 30.28 in NNE 2.5 mph 3 mph 99% 0.00 in 0 W/m2
22:19 42.9 °F 42.6 °F 30.28 in North 2.5 mph 3 mph 99% 0.00 in 0 W/m2
22:24 43 °F 42.7 °F 30.28 in North 1.9 mph 3 mph 99% 0.00 in 0 W/m2
22:29 43 °F 42.7 °F 30.28 in North 1.4 mph 2 mph 99% 0.00 in 0 W/m2
22:34 42.8 °F 42.5 °F 30.28 in NNW 2.4 mph 2.2 mph 99% 0.00 in 0 W/m2
22:39 42.8 °F 42.5 °F 30.28 in North 2.1 mph 3 mph 99% 0.00 in 0 W/m2
22:44 42.8 °F 42.5 °F 30.28 in North 2 mph 3 mph 99% 0.00 in 0 W/m2
22:49 42.8 °F 42.5 °F 30.28 in North 1.9 mph 2 mph 99% 0.00 in 0 W/m2
22:54 42.8 °F 42.5 °F 30.28 in North 2.3 mph 2 mph 99% 0.00 in 0 W/m2
22:59 42.8 °F 42.5 °F 30.28 in North 3.1 mph 3 mph 99% 0.00 in 0 W/m2
23:04 42.8 °F 42.5 °F 30.27 in North 3.3 mph 4 mph 99% 0.00 in 0 W/m2
23:09 42.8 °F 42.5 °F 30.27 in NNE 2.7 mph 4 mph 99% 0.00 in 0 W/m2
23:14 42.8 °F 42.5 °F 30.28 in North 2.2 mph 3 mph 99% 0.00 in 0 W/m2
23:19 42.8 °F 42.5 °F 30.28 in North 1.8 mph 2 mph 99% 0.00 in 0 W/m2
23:24 42.8 °F 42.5 °F 30.28 in North 1.9 mph 2 mph 99% 0.00 in 0 W/m2
23:29 42.8 °F 42.5 °F 30.28 in North 2.3 mph 2 mph 99% 0.00 in 0 W/m2
23:34 42.7 °F 42.5 °F 30.27 in North 2.7 mph 2 mph 99% 0.00 in 0 W/m2
23:39 42.6 °F 42.4 °F 30.27 in North 2.8 mph 3 mph 99% 0.00 in 0 W/m2
23:44 42.6 °F 42.4 °F 30.27 in North 3.1 mph 3 mph 99% 0.00 in 0 W/m2
23:49 42.6 °F 42.4 °F 30.27 in North 3.8 mph 5 mph 99% 0.00 in 0 W/m2
23:54 42.6 °F 42.4 °F 30.27 in North 2.1 mph 5 mph 99% 0.00 in 0 W/m2
23:59 42.6 °F 42.4 °F 30.27 in North 3.5 mph 3.1 mph 99% 0.00 in 0 W/m2
Knjazevac, Serbia
Compliments of Weather Underground - 4 mb